sensor_id;sensor_type;location;lat;lon;timestamp;P1;durP1;ratioP1;P2;durP2;ratioP2
75634;SDS011;64227;48.724;9.104;2022-11-04T00:01:33;1.02;;;0.70;;
75634;SDS011;64227;48.724;9.104;2022-11-04T00:04:01;0.82;;;0.60;;
75634;SDS011;64227;48.724;9.104;2022-11-04T00:06:26;0.43;;;0.32;;
75634;SDS011;64227;48.724;9.104;2022-11-04T00:08:53;2.38;;;0.60;;
75634;SDS011;64227;48.724;9.104;2022-11-04T00:11:19;1.13;;;0.70;;
75634;SDS011;64227;48.724;9.104;2022-11-04T00:14:04;0.70;;;0.60;;
75634;SDS011;64227;48.724;9.104;2022-11-04T00:16:30;0.90;;;0.70;;
75634;SDS011;64227;48.724;9.104;2022-11-04T00:19:14;0.80;;;0.47;;
75634;SDS011;64227;48.724;9.104;2022-11-04T00:21:40;0.90;;;0.50;;
75634;SDS011;64227;48.724;9.104;2022-11-04T00:24:24;0.65;;;0.45;;
75634;SDS011;64227;48.724;9.104;2022-11-04T00:27:11;0.70;;;0.40;;
75634;SDS011;64227;48.724;9.104;2022-11-04T00:29:56;0.70;;;0.50;;
75634;SDS011;64227;48.724;9.104;2022-11-04T00:32:21;0.95;;;0.50;;
75634;SDS011;64227;48.724;9.104;2022-11-04T00:35:05;0.50;;;0.43;;
75634;SDS011;64227;48.724;9.104;2022-11-04T00:37:31;0.77;;;0.77;;
75634;SDS011;64227;48.724;9.104;2022-11-04T00:39:56;0.68;;;0.57;;
75634;SDS011;64227;48.724;9.104;2022-11-04T00:42:22;1.10;;;0.60;;
75634;SDS011;64227;48.724;9.104;2022-11-04T00:44:47;0.55;;;0.45;;
75634;SDS011;64227;48.724;9.104;2022-11-04T00:47:12;0.70;;;0.70;;
75634;SDS011;64227;48.724;9.104;2022-11-04T00:49:38;0.35;;;0.35;;
75634;SDS011;64227;48.724;9.104;2022-11-04T00:54:45;1.02;;;0.60;;
75634;SDS011;64227;48.724;9.104;2022-11-04T00:57:16;0.52;;;0.45;;
75634;SDS011;64227;48.724;9.104;2022-11-04T00:59:41;0.95;;;0.65;;
75634;SDS011;64227;48.724;9.104;2022-11-04T01:02:12;1.02;;;0.52;;
75634;SDS011;64227;48.724;9.104;2022-11-04T01:04:37;0.52;;;0.45;;
75634;SDS011;64227;48.724;9.104;2022-11-04T01:07:03;1.10;;;0.63;;
75634;SDS011;64227;48.724;9.104;2022-11-04T01:09:29;0.60;;;0.52;;
75634;SDS011;64227;48.724;9.104;2022-11-04T01:11:57;0.80;;;0.70;;
75634;SDS011;64227;48.724;9.104;2022-11-04T01:14:22;0.73;;;0.55;;
75634;SDS011;64227;48.724;9.104;2022-11-04T01:16:48;1.55;;;0.70;;
75634;SDS011;64227;48.724;9.104;2022-11-04T01:19:14;0.90;;;0.63;;
75634;SDS011;64227;48.724;9.104;2022-11-04T01:21:39;0.60;;;0.60;;
75634;SDS011;64227;48.724;9.104;2022-11-04T01:24:05;0.88;;;0.70;;
75634;SDS011;64227;48.724;9.104;2022-11-04T01:26:30;0.77;;;0.60;;
75634;SDS011;64227;48.724;9.104;2022-11-04T01:28:56;1.98;;;0.70;;
75634;SDS011;64227;48.724;9.104;2022-11-04T01:31:23;0.70;;;0.60;;
75634;SDS011;64227;48.724;9.104;2022-11-04T01:33:50;0.45;;;0.43;;
75634;SDS011;64227;48.724;9.104;2022-11-04T01:36:17;1.00;;;0.88;;
75634;SDS011;64227;48.724;9.104;2022-11-04T01:38:43;0.77;;;0.60;;
75634;SDS011;64227;48.724;9.104;2022-11-04T01:41:09;0.73;;;0.63;;
75634;SDS011;64227;48.724;9.104;2022-11-04T01:43:53;0.70;;;0.68;;
75634;SDS011;64227;48.724;9.104;2022-11-04T01:46:37;0.73;;;0.65;;
75634;SDS011;64227;48.724;9.104;2022-11-04T01:51:41;0.93;;;0.60;;
75634;SDS011;64227;48.724;9.104;2022-11-04T01:54:07;0.60;;;0.40;;
75634;SDS011;64227;48.724;9.104;2022-11-04T01:56:35;0.40;;;0.30;;
75634;SDS011;64227;48.724;9.104;2022-11-04T01:59:02;0.40;;;0.40;;
75634;SDS011;64227;48.724;9.104;2022-11-04T02:01:31;0.70;;;0.50;;
75634;SDS011;64227;48.724;9.104;2022-11-04T02:03:57;1.38;;;0.60;;
75634;SDS011;64227;48.724;9.104;2022-11-04T02:06:43;0.82;;;0.38;;
75634;SDS011;64227;48.724;9.104;2022-11-04T02:09:09;0.60;;;0.45;;
75634;SDS011;64227;48.724;9.104;2022-11-04T02:11:35;0.38;;;0.38;;
75634;SDS011;64227;48.724;9.104;2022-11-04T02:14:19;0.35;;;0.35;;
75634;SDS011;64227;48.724;9.104;2022-11-04T02:16:44;0.70;;;0.20;;
75634;SDS011;64227;48.724;9.104;2022-11-04T02:25:12;0.40;;;0.40;;
75634;SDS011;64227;48.724;9.104;2022-11-04T02:30:27;1.25;;;0.20;;
75634;SDS011;64227;48.724;9.104;2022-11-04T02:33:02;1.05;;;0.28;;
75634;SDS011;64227;48.724;9.104;2022-11-04T02:38:37;0.30;;;0.30;;
75634;SDS011;64227;48.724;9.104;2022-11-04T02:41:25;0.50;;;0.30;;
75634;SDS011;64227;48.724;9.104;2022-11-04T02:46:51;0.40;;;0.30;;
75634;SDS011;64227;48.724;9.104;2022-11-04T02:49:26;0.73;;;0.47;;
75634;SDS011;64227;48.724;9.104;2022-11-04T02:56:53;0.32;;;0.32;;
75634;SDS011;64227;48.724;9.104;2022-11-04T02:59:29;0.95;;;0.30;;
75634;SDS011;64227;48.724;9.104;2022-11-04T03:01:57;0.40;;;0.20;;
75634;SDS011;64227;48.724;9.104;2022-11-04T03:04:25;0.30;;;0.25;;
75634;SDS011;64227;48.724;9.104;2022-11-04T03:06:53;0.28;;;0.20;;
75634;SDS011;64227;48.724;9.104;2022-11-04T03:09:20;0.30;;;0.30;;
75634;SDS011;64227;48.724;9.104;2022-11-04T03:11:47;0.95;;;0.30;;
75634;SDS011;64227;48.724;9.104;2022-11-04T03:14:17;0.40;;;0.20;;
75634;SDS011;64227;48.724;9.104;2022-11-04T03:16:49;0.20;;;0.20;;
75634;SDS011;64227;48.724;9.104;2022-11-04T03:19:27;0.50;;;0.40;;
75634;SDS011;64227;48.724;9.104;2022-11-04T03:21:57;0.52;;;0.40;;
75634;SDS011;64227;48.724;9.104;2022-11-04T03:24:25;1.10;;;0.50;;
75634;SDS011;64227;48.724;9.104;2022-11-04T03:26:51;0.80;;;0.20;;
75634;SDS011;64227;48.724;9.104;2022-11-04T03:29:28;0.30;;;0.20;;
75634;SDS011;64227;48.724;9.104;2022-11-04T03:31:59;0.95;;;0.22;;
75634;SDS011;64227;48.724;9.104;2022-11-04T03:34:29;0.50;;;0.20;;
75634;SDS011;64227;48.724;9.104;2022-11-04T03:36:55;1.05;;;0.30;;
75634;SDS011;64227;48.724;9.104;2022-11-04T03:39:21;0.45;;;0.28;;
75634;SDS011;64227;48.724;9.104;2022-11-04T03:41:47;0.40;;;0.30;;
75634;SDS011;64227;48.724;9.104;2022-11-04T03:44:15;0.35;;;0.20;;
75634;SDS011;64227;48.724;9.104;2022-11-04T03:46:40;0.30;;;0.30;;
75634;SDS011;64227;48.724;9.104;2022-11-04T03:49:06;0.95;;;0.30;;
75634;SDS011;64227;48.724;9.104;2022-11-04T03:54:29;0.47;;;0.22;;
75634;SDS011;64227;48.724;9.104;2022-11-04T03:57:47;0.20;;;0.20;;
75634;SDS011;64227;48.724;9.104;2022-11-04T04:00:07;0.20;;;0.10;;
75634;SDS011;64227;48.724;9.104;2022-11-04T04:05:08;0.20;;;0.20;;
75634;SDS011;64227;48.724;9.104;2022-11-04T04:07:39;0.25;;;0.10;;
75634;SDS011;64227;48.724;9.104;2022-11-04T04:10:14;0.20;;;0.20;;
75634;SDS011;64227;48.724;9.104;2022-11-04T04:13:02;0.20;;;0.10;;
75634;SDS011;64227;48.724;9.104;2022-11-04T04:15:40;0.10;;;0.10;;
75634;SDS011;64227;48.724;9.104;2022-11-04T04:18:09;0.25;;;0.13;;
75634;SDS011;64227;48.724;9.104;2022-11-04T04:20:37;0.10;;;0.10;;
75634;SDS011;64227;48.724;9.104;2022-11-04T04:23:08;0.55;;;0.20;;
75634;SDS011;64227;48.724;9.104;2022-11-04T04:25:53;0.25;;;0.15;;
75634;SDS011;64227;48.724;9.104;2022-11-04T04:28:39;0.20;;;0.20;;
75634;SDS011;64227;48.724;9.104;2022-11-04T04:31:05;0.40;;;0.10;;
75634;SDS011;64227;48.724;9.104;2022-11-04T04:33:31;0.20;;;0.20;;
75634;SDS011;64227;48.724;9.104;2022-11-04T04:35:56;0.57;;;0.20;;
75634;SDS011;64227;48.724;9.104;2022-11-04T04:38:23;0.10;;;0.10;;
75634;SDS011;64227;48.724;9.104;2022-11-04T04:41:28;0.68;;;0.03;;
75634;SDS011;64227;48.724;9.104;2022-11-04T04:47:13;0.20;;;0.20;;
75634;SDS011;64227;48.724;9.104;2022-11-04T04:49:53;0.20;;;0.10;;
75634;SDS011;64227;48.724;9.104;2022-11-04T04:52:22;0.80;;;0.25;;
75634;SDS011;64227;48.724;9.104;2022-11-04T04:54:49;0.10;;;0.10;;
75634;SDS011;64227;48.724;9.104;2022-11-04T04:57:14;0.45;;;0.15;;
75634;SDS011;64227;48.724;9.104;2022-11-04T04:59:40;0.40;;;0.17;;
75634;SDS011;64227;48.724;9.104;2022-11-04T05:02:05;0.20;;;0.10;;
75634;SDS011;64227;48.724;9.104;2022-11-04T05:04:30;0.57;;;0.45;;
75634;SDS011;64227;48.724;9.104;2022-11-04T05:06:56;0.17;;;0.13;;
75634;SDS011;64227;48.724;9.104;2022-11-04T05:09:23;0.30;;;0.10;;
75634;SDS011;64227;48.724;9.104;2022-11-04T05:11:49;0.10;;;0.10;;
75634;SDS011;64227;48.724;9.104;2022-11-04T05:14:14;0.13;;;0.10;;
75634;SDS011;64227;48.724;9.104;2022-11-04T05:16:39;1.08;;;0.28;;
75634;SDS011;64227;48.724;9.104;2022-11-04T05:19:08;0.20;;;0.20;;
75634;SDS011;64227;48.724;9.104;2022-11-04T05:21:33;1.75;;;0.20;;
75634;SDS011;64227;48.724;9.104;2022-11-04T05:24:01;0.55;;;0.35;;
75634;SDS011;64227;48.724;9.104;2022-11-04T05:26:29;0.20;;;0.20;;
75634;SDS011;64227;48.724;9.104;2022-11-04T05:28:54;0.10;;;0.10;;
75634;SDS011;64227;48.724;9.104;2022-11-04T05:31:19;0.55;;;0.20;;
75634;SDS011;64227;48.724;9.104;2022-11-04T05:33:45;0.57;;;0.20;;
75634;SDS011;64227;48.724;9.104;2022-11-04T05:36:11;0.47;;;0.25;;
75634;SDS011;64227;48.724;9.104;2022-11-04T05:38:38;0.35;;;0.25;;
75634;SDS011;64227;48.724;9.104;2022-11-04T05:41:04;2.75;;;0.50;;
75634;SDS011;64227;48.724;9.104;2022-11-04T05:43:30;1.00;;;0.35;;
75634;SDS011;64227;48.724;9.104;2022-11-04T05:45:57;0.45;;;0.40;;
75634;SDS011;64227;48.724;9.104;2022-11-04T05:48:23;1.65;;;0.30;;
75634;SDS011;64227;48.724;9.104;2022-11-04T05:50:48;0.93;;;0.45;;
75634;SDS011;64227;48.724;9.104;2022-11-04T05:53:13;0.38;;;0.17;;
75634;SDS011;64227;48.724;9.104;2022-11-04T05:55:39;1.13;;;0.40;;
75634;SDS011;64227;48.724;9.104;2022-11-04T05:58:04;0.22;;;0.22;;
75634;SDS011;64227;48.724;9.104;2022-11-04T06:00:29;1.95;;;0.20;;
75634;SDS011;64227;48.724;9.104;2022-11-04T06:02:55;0.75;;;0.40;;
75634;SDS011;64227;48.724;9.104;2022-11-04T06:05:23;1.48;;;0.40;;
75634;SDS011;64227;48.724;9.104;2022-11-04T06:07:57;0.45;;;0.28;;
75634;SDS011;64227;48.724;9.104;2022-11-04T06:10:31;0.30;;;0.28;;
75634;SDS011;64227;48.724;9.104;2022-11-04T06:12:59;0.20;;;0.20;;
75634;SDS011;64227;48.724;9.104;2022-11-04T06:15:25;0.45;;;0.20;;
75634;SDS011;64227;48.724;9.104;2022-11-04T06:17:50;0.22;;;0.22;;
75634;SDS011;64227;48.724;9.104;2022-11-04T06:20:15;1.98;;;0.35;;
75634;SDS011;64227;48.724;9.104;2022-11-04T06:22:41;0.20;;;0.20;;
75634;SDS011;64227;48.724;9.104;2022-11-04T06:25:06;0.20;;;0.20;;
75634;SDS011;64227;48.724;9.104;2022-11-04T06:27:32;0.73;;;0.73;;
75634;SDS011;64227;48.724;9.104;2022-11-04T06:29:57;0.20;;;0.20;;
75634;SDS011;64227;48.724;9.104;2022-11-04T06:32:23;0.15;;;0.15;;
75634;SDS011;64227;48.724;9.104;2022-11-04T06:34:48;0.40;;;0.40;;
75634;SDS011;64227;48.724;9.104;2022-11-04T06:37:13;0.28;;;0.13;;
75634;SDS011;64227;48.724;9.104;2022-11-04T06:39:39;0.20;;;0.17;;
75634;SDS011;64227;48.724;9.104;2022-11-04T06:42:04;0.47;;;0.25;;
75634;SDS011;64227;48.724;9.104;2022-11-04T06:44:30;1.98;;;0.20;;
75634;SDS011;64227;48.724;9.104;2022-11-04T06:46:55;0.63;;;0.32;;
75634;SDS011;64227;48.724;9.104;2022-11-04T06:49:20;0.40;;;0.30;;
75634;SDS011;64227;48.724;9.104;2022-11-04T06:51:47;0.98;;;0.50;;
75634;SDS011;64227;48.724;9.104;2022-11-04T06:54:13;3.30;;;1.05;;
75634;SDS011;64227;48.724;9.104;2022-11-04T06:56:39;0.82;;;0.40;;
75634;SDS011;64227;48.724;9.104;2022-11-04T06:59:04;1.00;;;0.50;;
75634;SDS011;64227;48.724;9.104;2022-11-04T07:01:31;0.60;;;0.50;;
75634;SDS011;64227;48.724;9.104;2022-11-04T07:03:58;0.10;;;0.10;;
75634;SDS011;64227;48.724;9.104;2022-11-04T07:06:27;1.65;;;0.20;;
75634;SDS011;64227;48.724;9.104;2022-11-04T07:08:55;0.57;;;0.30;;
75634;SDS011;64227;48.724;9.104;2022-11-04T07:11:24;0.35;;;0.20;;
75634;SDS011;64227;48.724;9.104;2022-11-04T07:13:50;0.40;;;0.30;;
75634;SDS011;64227;48.724;9.104;2022-11-04T07:16:15;0.52;;;0.35;;
75634;SDS011;64227;48.724;9.104;2022-11-04T07:18:41;0.93;;;0.38;;
75634;SDS011;64227;48.724;9.104;2022-11-04T07:21:07;0.60;;;0.40;;
75634;SDS011;64227;48.724;9.104;2022-11-04T07:23:32;0.93;;;0.50;;
75634;SDS011;64227;48.724;9.104;2022-11-04T07:26:02;0.70;;;0.50;;
75634;SDS011;64227;48.724;9.104;2022-11-04T07:28:29;0.50;;;0.40;;
75634;SDS011;64227;48.724;9.104;2022-11-04T07:30:57;0.60;;;0.40;;
75634;SDS011;64227;48.724;9.104;2022-11-04T07:33:24;0.65;;;0.50;;
75634;SDS011;64227;48.724;9.104;2022-11-04T07:35:50;0.73;;;0.50;;
75634;SDS011;64227;48.724;9.104;2022-11-04T07:38:15;0.60;;;0.40;;
75634;SDS011;64227;48.724;9.104;2022-11-04T07:40:41;0.50;;;0.40;;
75634;SDS011;64227;48.724;9.104;2022-11-04T07:43:06;0.60;;;0.40;;
75634;SDS011;64227;48.724;9.104;2022-11-04T07:45:32;1.73;;;0.43;;
75634;SDS011;64227;48.724;9.104;2022-11-04T07:47:57;0.57;;;0.50;;
75634;SDS011;64227;48.724;9.104;2022-11-04T07:50:22;0.40;;;0.40;;
75634;SDS011;64227;48.724;9.104;2022-11-04T07:52:48;0.50;;;0.40;;
75634;SDS011;64227;48.724;9.104;2022-11-04T07:55:14;0.68;;;0.40;;
75634;SDS011;64227;48.724;9.104;2022-11-04T07:57:42;0.75;;;0.47;;
75634;SDS011;64227;48.724;9.104;2022-11-04T08:00:11;2.30;;;0.50;;
75634;SDS011;64227;48.724;9.104;2022-11-04T08:02:38;0.45;;;0.40;;
75634;SDS011;64227;48.724;9.104;2022-11-04T08:05:04;0.75;;;0.40;;
75634;SDS011;64227;48.724;9.104;2022-11-04T08:07:30;0.73;;;0.40;;
75634;SDS011;64227;48.724;9.104;2022-11-04T08:09:56;0.50;;;0.50;;
75634;SDS011;64227;48.724;9.104;2022-11-04T08:12:21;0.98;;;0.40;;
75634;SDS011;64227;48.724;9.104;2022-11-04T08:14:48;0.30;;;0.30;;
75634;SDS011;64227;48.724;9.104;2022-11-04T08:17:13;0.50;;;0.50;;
75634;SDS011;64227;48.724;9.104;2022-11-04T08:19:38;0.40;;;0.37;;
75634;SDS011;64227;48.724;9.104;2022-11-04T08:22:04;0.32;;;0.30;;
75634;SDS011;64227;48.724;9.104;2022-11-04T08:24:29;0.73;;;0.65;;
75634;SDS011;64227;48.724;9.104;2022-11-04T08:26:54;0.40;;;0.40;;
75634;SDS011;64227;48.724;9.104;2022-11-04T08:29:20;0.63;;;0.50;;
75634;SDS011;64227;48.724;9.104;2022-11-04T08:31:45;1.00;;;0.50;;
75634;SDS011;64227;48.724;9.104;2022-11-04T08:34:10;0.85;;;0.45;;
75634;SDS011;64227;48.724;9.104;2022-11-04T08:36:37;1.88;;;0.57;;
75634;SDS011;64227;48.724;9.104;2022-11-04T08:39:04;1.80;;;0.63;;
75634;SDS011;64227;48.724;9.104;2022-11-04T08:41:30;1.63;;;0.60;;
75634;SDS011;64227;48.724;9.104;2022-11-04T08:43:57;0.55;;;0.50;;
75634;SDS011;64227;48.724;9.104;2022-11-04T08:46:25;1.05;;;0.63;;
75634;SDS011;64227;48.724;9.104;2022-11-04T08:48:51;2.22;;;0.70;;
75634;SDS011;64227;48.724;9.104;2022-11-04T08:51:21;0.70;;;0.50;;
75634;SDS011;64227;48.724;9.104;2022-11-04T08:53:48;1.25;;;0.65;;
75634;SDS011;64227;48.724;9.104;2022-11-04T08:56:26;1.02;;;0.50;;
75634;SDS011;64227;48.724;9.104;2022-11-04T08:58:53;0.75;;;0.63;;
75634;SDS011;64227;48.724;9.104;2022-11-04T09:01:20;0.73;;;0.70;;
75634;SDS011;64227;48.724;9.104;2022-11-04T09:03:46;1.25;;;0.57;;
75634;SDS011;64227;48.724;9.104;2022-11-04T09:06:13;1.98;;;0.50;;
75634;SDS011;64227;48.724;9.104;2022-11-04T09:08:41;1.55;;;0.60;;
75634;SDS011;64227;48.724;9.104;2022-11-04T09:11:08;1.50;;;0.60;;
75634;SDS011;64227;48.724;9.104;2022-11-04T09:13:35;0.60;;;0.45;;
75634;SDS011;64227;48.724;9.104;2022-11-04T09:16:01;0.73;;;0.47;;
75634;SDS011;64227;48.724;9.104;2022-11-04T09:18:27;0.55;;;0.35;;
75634;SDS011;64227;48.724;9.104;2022-11-04T09:20:58;0.63;;;0.50;;
75634;SDS011;64227;48.724;9.104;2022-11-04T09:23:24;0.73;;;0.40;;
75634;SDS011;64227;48.724;9.104;2022-11-04T09:25:49;1.52;;;0.50;;
75634;SDS011;64227;48.724;9.104;2022-11-04T09:28:15;3.47;;;0.88;;
75634;SDS011;64227;48.724;9.104;2022-11-04T09:30:40;2.53;;;0.60;;
75634;SDS011;64227;48.724;9.104;2022-11-04T09:33:05;1.23;;;0.52;;
75634;SDS011;64227;48.724;9.104;2022-11-04T09:35:31;0.85;;;0.68;;
75634;SDS011;64227;48.724;9.104;2022-11-04T09:37:57;2.55;;;0.70;;
75634;SDS011;64227;48.724;9.104;2022-11-04T09:40:23;1.13;;;0.73;;
75634;SDS011;64227;48.724;9.104;2022-11-04T09:45:30;2.00;;;0.82;;
75634;SDS011;64227;48.724;9.104;2022-11-04T09:48:03;0.80;;;0.35;;
75634;SDS011;64227;48.724;9.104;2022-11-04T09:50:38;0.52;;;0.43;;
75634;SDS011;64227;48.724;9.104;2022-11-04T09:53:22;1.65;;;0.50;;
75634;SDS011;64227;48.724;9.104;2022-11-04T09:55:55;0.65;;;0.45;;
75634;SDS011;64227;48.724;9.104;2022-11-04T09:58:22;1.60;;;0.50;;
75634;SDS011;64227;48.724;9.104;2022-11-04T10:01:00;0.70;;;0.40;;
75634;SDS011;64227;48.724;9.104;2022-11-04T10:10:35;0.65;;;0.50;;
75634;SDS011;64227;48.724;9.104;2022-11-04T10:15:50;2.92;;;0.70;;
75634;SDS011;64227;48.724;9.104;2022-11-04T10:26:51;1.60;;;0.30;;
75634;SDS011;64227;48.724;9.104;2022-11-04T10:31:53;1.33;;;0.30;;
75634;SDS011;64227;48.724;9.104;2022-11-04T10:34:22;1.25;;;0.30;;
75634;SDS011;64227;48.724;9.104;2022-11-04T10:36:52;0.90;;;0.60;;
75634;SDS011;64227;48.724;9.104;2022-11-04T10:39:25;3.00;;;0.75;;
75634;SDS011;64227;48.724;9.104;2022-11-04T10:41:53;7.20;;;0.68;;
75634;SDS011;64227;48.724;9.104;2022-11-04T10:52:07;1.33;;;0.52;;
75634;SDS011;64227;48.724;9.104;2022-11-04T10:54:36;2.40;;;0.40;;
75634;SDS011;64227;48.724;9.104;2022-11-04T10:57:04;0.85;;;0.32;;
75634;SDS011;64227;48.724;9.104;2022-11-04T10:59:31;1.23;;;0.40;;
75634;SDS011;64227;48.724;9.104;2022-11-04T11:02:02;0.90;;;0.50;;
75634;SDS011;64227;48.724;9.104;2022-11-04T11:06:58;5.13;;;1.15;;
75634;SDS011;64227;48.724;9.104;2022-11-04T11:09:26;2.72;;;0.65;;
75634;SDS011;64227;48.724;9.104;2022-11-04T11:11:55;1.85;;;0.55;;
75634;SDS011;64227;48.724;9.104;2022-11-04T11:19:20;1.27;;;0.43;;
75634;SDS011;64227;48.724;9.104;2022-11-04T11:21:50;0.47;;;0.40;;
75634;SDS011;64227;48.724;9.104;2022-11-04T11:24:18;1.23;;;0.50;;
75634;SDS011;64227;48.724;9.104;2022-11-04T11:26:46;20.60;;;4.05;;
75634;SDS011;64227;48.724;9.104;2022-11-04T11:29:17;12.98;;;3.08;;
75634;SDS011;64227;48.724;9.104;2022-11-04T11:31:45;5.05;;;0.80;;
75634;SDS011;64227;48.724;9.104;2022-11-04T11:34:13;2.38;;;0.45;;
75634;SDS011;64227;48.724;9.104;2022-11-04T11:36:42;2.63;;;0.85;;
75634;SDS011;64227;48.724;9.104;2022-11-04T11:44:46;2.92;;;0.50;;
75634;SDS011;64227;48.724;9.104;2022-11-04T11:50:04;6.18;;;1.67;;
75634;SDS011;64227;48.724;9.104;2022-11-04T11:52:33;4.72;;;0.60;;
75634;SDS011;64227;48.724;9.104;2022-11-04T11:57:32;0.55;;;0.32;;
75634;SDS011;64227;48.724;9.104;2022-11-04T12:00:05;0.55;;;0.32;;
75634;SDS011;64227;48.724;9.104;2022-11-04T12:05:20;4.40;;;0.82;;
75634;SDS011;64227;48.724;9.104;2022-11-04T12:10:28;2.22;;;0.50;;
75634;SDS011;64227;48.724;9.104;2022-11-04T12:13:13;22.63;;;4.53;;
75634;SDS011;64227;48.724;9.104;2022-11-04T12:30:13;1.15;;;0.30;;
75634;SDS011;64227;48.724;9.104;2022-11-04T12:32:57;1.58;;;0.40;;
75634;SDS011;64227;48.724;9.104;2022-11-04T12:35:41;2.08;;;0.60;;
75634;SDS011;64227;48.724;9.104;2022-11-04T12:46:38;1.45;;;0.50;;
75634;SDS011;64227;48.724;9.104;2022-11-04T12:49:32;1.75;;;0.40;;
75634;SDS011;64227;48.724;9.104;2022-11-04T12:54:45;3.90;;;0.77;;
75634;SDS011;64227;48.724;9.104;2022-11-04T12:57:31;0.77;;;0.55;;
75634;SDS011;64227;48.724;9.104;2022-11-04T13:00:19;10.20;;;4.00;;
75634;SDS011;64227;48.724;9.104;2022-11-04T13:02:56;7.75;;;2.55;;
75634;SDS011;64227;48.724;9.104;2022-11-04T13:05:41;4.13;;;0.90;;
75634;SDS011;64227;48.724;9.104;2022-11-04T13:08:27;1.95;;;0.40;;
75634;SDS011;64227;48.724;9.104;2022-11-04T13:11:02;1.67;;;0.70;;
75634;SDS011;64227;48.724;9.104;2022-11-04T13:13:47;0.73;;;0.45;;
75634;SDS011;64227;48.724;9.104;2022-11-04T13:18:40;0.93;;;0.30;;
75634;SDS011;64227;48.724;9.104;2022-11-04T13:21:09;2.00;;;0.40;;
75634;SDS011;64227;48.724;9.104;2022-11-04T13:24:10;0.85;;;0.40;;
75634;SDS011;64227;48.724;9.104;2022-11-04T13:26:43;7.30;;;2.38;;
75634;SDS011;64227;48.724;9.104;2022-11-04T13:29:14;8.88;;;3.42;;
75634;SDS011;64227;48.724;9.104;2022-11-04T13:37:12;6.45;;;2.92;;
75634;SDS011;64227;48.724;9.104;2022-11-04T13:39:48;12.90;;;6.35;;
75634;SDS011;64227;48.724;9.104;2022-11-04T13:42:56;13.02;;;6.65;;
75634;SDS011;64227;48.724;9.104;2022-11-04T13:45:58;13.13;;;6.82;;
75634;SDS011;64227;48.724;9.104;2022-11-04T13:48:24;11.77;;;6.22;;
75634;SDS011;64227;48.724;9.104;2022-11-04T13:51:02;10.93;;;5.22;;
75634;SDS011;64227;48.724;9.104;2022-11-04T13:56:31;8.25;;;5.28;;
75634;SDS011;64227;48.724;9.104;2022-11-04T13:59:06;3.70;;;3.20;;
75634;SDS011;64227;48.724;9.104;2022-11-04T14:02:42;1.88;;;1.73;;
75634;SDS011;64227;48.724;9.104;2022-11-04T14:18:34;1.63;;;1.40;;
75634;SDS011;64227;48.724;9.104;2022-11-04T14:23:31;5.93;;;2.78;;
75634;SDS011;64227;48.724;9.104;2022-11-04T14:25:57;2.25;;;1.20;;
75634;SDS011;64227;48.724;9.104;2022-11-04T14:28:25;2.03;;;1.20;;
75634;SDS011;64227;48.724;9.104;2022-11-04T14:33:32;6.40;;;3.90;;
75634;SDS011;64227;48.724;9.104;2022-11-04T14:44:00;7.50;;;4.88;;
75634;SDS011;64227;48.724;9.104;2022-11-04T14:46:27;5.60;;;3.72;;
75634;SDS011;64227;48.724;9.104;2022-11-04T14:48:57;4.50;;;3.13;;
75634;SDS011;64227;48.724;9.104;2022-11-04T14:51:29;4.03;;;3.10;;
75634;SDS011;64227;48.724;9.104;2022-11-04T14:54:04;2.88;;;2.25;;
75634;SDS011;64227;48.724;9.104;2022-11-04T14:56:32;1.90;;;1.50;;
75634;SDS011;64227;48.724;9.104;2022-11-04T14:59:02;0.95;;;0.77;;
75634;SDS011;64227;48.724;9.104;2022-11-04T15:01:31;1.63;;;0.73;;
75634;SDS011;64227;48.724;9.104;2022-11-04T15:04:32;3.33;;;0.98;;
75634;SDS011;64227;48.724;9.104;2022-11-04T15:06:57;1.02;;;0.90;;
75634;SDS011;64227;48.724;9.104;2022-11-04T15:09:27;0.50;;;0.50;;
75634;SDS011;64227;48.724;9.104;2022-11-04T15:14:43;0.40;;;0.40;;
75634;SDS011;64227;48.724;9.104;2022-11-04T15:17:09;0.30;;;0.30;;
75634;SDS011;64227;48.724;9.104;2022-11-04T15:19:42;0.10;;;0.10;;
75634;SDS011;64227;48.724;9.104;2022-11-04T15:22:12;0.40;;;0.30;;
75634;SDS011;64227;48.724;9.104;2022-11-04T15:24:40;0.50;;;0.50;;
75634;SDS011;64227;48.724;9.104;2022-11-04T15:27:11;0.28;;;0.28;;
75634;SDS011;64227;48.724;9.104;2022-11-04T15:32:03;0.43;;;0.43;;
75634;SDS011;64227;48.724;9.104;2022-11-04T15:34:29;0.90;;;0.40;;
75634;SDS011;64227;48.724;9.104;2022-11-04T15:36:59;0.47;;;0.43;;
75634;SDS011;64227;48.724;9.104;2022-11-04T15:39:30;0.82;;;0.30;;
75634;SDS011;64227;48.724;9.104;2022-11-04T15:41:57;0.17;;;0.13;;
75634;SDS011;64227;48.724;9.104;2022-11-04T15:44:48;0.68;;;0.30;;
75634;SDS011;64227;48.724;9.104;2022-11-04T15:49:44;0.57;;;0.52;;
75634;SDS011;64227;48.724;9.104;2022-11-04T15:52:12;1.08;;;0.38;;
75634;SDS011;64227;48.724;9.104;2022-11-04T15:54:48;0.38;;;0.38;;
75634;SDS011;64227;48.724;9.104;2022-11-04T15:57:17;0.30;;;0.30;;
75634;SDS011;64227;48.724;9.104;2022-11-04T15:59:48;0.65;;;0.30;;
75634;SDS011;64227;48.724;9.104;2022-11-04T16:02:27;0.82;;;0.38;;
75634;SDS011;64227;48.724;9.104;2022-11-04T16:07:33;0.50;;;0.32;;
75634;SDS011;64227;48.724;9.104;2022-11-04T16:10:00;0.50;;;0.30;;
75634;SDS011;64227;48.724;9.104;2022-11-04T16:12:27;0.30;;;0.30;;
75634;SDS011;64227;48.724;9.104;2022-11-04T16:14:55;1.30;;;0.43;;
75634;SDS011;64227;48.724;9.104;2022-11-04T16:17:21;0.20;;;0.20;;
75634;SDS011;64227;48.724;9.104;2022-11-04T16:19:54;0.57;;;0.22;;
75634;SDS011;64227;48.724;9.104;2022-11-04T16:22:25;0.47;;;0.10;;
75634;SDS011;64227;48.724;9.104;2022-11-04T16:24:53;1.58;;;0.40;;
75634;SDS011;64227;48.724;9.104;2022-11-04T16:27:20;0.30;;;0.22;;
75634;SDS011;64227;48.724;9.104;2022-11-04T16:29:50;0.28;;;0.20;;
75634;SDS011;64227;48.724;9.104;2022-11-04T16:32:19;0.30;;;0.25;;
75634;SDS011;64227;48.724;9.104;2022-11-04T16:34:50;1.20;;;0.40;;
75634;SDS011;64227;48.724;9.104;2022-11-04T16:37:16;1.35;;;0.73;;
75634;SDS011;64227;48.724;9.104;2022-11-04T16:39:42;2.65;;;0.63;;
75634;SDS011;64227;48.724;9.104;2022-11-04T16:42:09;0.63;;;0.50;;
75634;SDS011;64227;48.724;9.104;2022-11-04T16:44:36;0.30;;;0.30;;
75634;SDS011;64227;48.724;9.104;2022-11-04T16:47:01;0.50;;;0.40;;
75634;SDS011;64227;48.724;9.104;2022-11-04T16:49:26;2.60;;;0.57;;
75634;SDS011;64227;48.724;9.104;2022-11-04T16:51:53;0.50;;;0.40;;
75634;SDS011;64227;48.724;9.104;2022-11-04T16:54:19;0.47;;;0.30;;
75634;SDS011;64227;48.724;9.104;2022-11-04T16:56:45;0.40;;;0.40;;
75634;SDS011;64227;48.724;9.104;2022-11-04T16:59:10;0.77;;;0.47;;
75634;SDS011;64227;48.724;9.104;2022-11-04T17:01:36;0.80;;;0.50;;
75634;SDS011;64227;48.724;9.104;2022-11-04T17:04:03;0.73;;;0.63;;
75634;SDS011;64227;48.724;9.104;2022-11-04T17:06:32;0.40;;;0.35;;
75634;SDS011;64227;48.724;9.104;2022-11-04T17:08:58;1.10;;;0.60;;
75634;SDS011;64227;48.724;9.104;2022-11-04T17:11:25;1.10;;;0.40;;
75634;SDS011;64227;48.724;9.104;2022-11-04T17:13:50;0.40;;;0.35;;
75634;SDS011;64227;48.724;9.104;2022-11-04T17:16:16;0.50;;;0.40;;
75634;SDS011;64227;48.724;9.104;2022-11-04T17:18:41;1.50;;;0.57;;
75634;SDS011;64227;48.724;9.104;2022-11-04T17:21:07;1.42;;;0.32;;
75634;SDS011;64227;48.724;9.104;2022-11-04T17:23:33;1.70;;;1.25;;
75634;SDS011;64227;48.724;9.104;2022-11-04T17:25:59;1.95;;;1.40;;
75634;SDS011;64227;48.724;9.104;2022-11-04T17:28:24;2.97;;;1.40;;
75634;SDS011;64227;48.724;9.104;2022-11-04T17:30:50;6.95;;;3.97;;
75634;SDS011;64227;48.724;9.104;2022-11-04T17:33:16;7.82;;;4.00;;
75634;SDS011;64227;48.724;9.104;2022-11-04T17:35:43;5.45;;;2.60;;
75634;SDS011;64227;48.724;9.104;2022-11-04T17:38:12;6.30;;;2.70;;
75634;SDS011;64227;48.724;9.104;2022-11-04T17:40:38;3.85;;;2.35;;
75634;SDS011;64227;48.724;9.104;2022-11-04T17:43:22;4.38;;;2.00;;
75634;SDS011;64227;48.724;9.104;2022-11-04T17:46:07;6.78;;;3.55;;